createdAt,value
2022-12-23T00:00:35.311Z,42.17
2022-12-23T00:03:03.855Z,42.77
2022-12-23T00:05:37.737Z,41.03
2022-12-23T00:08:07.830Z,41.53
2022-12-23T00:10:39.322Z,41.93
2022-12-23T00:13:25.583Z,41.30
2022-12-23T00:16:03.534Z,42.23
2022-12-23T00:18:32.310Z,41.77
2022-12-23T00:21:08.108Z,44.30
2022-12-23T00:23:39.605Z,40.93
2022-12-23T00:26:08.996Z,43.83
2022-12-23T00:28:37.340Z,39.53
2022-12-23T00:31:08.908Z,42.73
2022-12-23T00:33:39.165Z,41.33
2022-12-23T00:36:14.579Z,42.53
2022-12-23T00:39:00.516Z,41.43
2022-12-23T00:41:46.187Z,44.83
2022-12-23T00:44:15.162Z,41.13
2022-12-23T00:46:44.877Z,40.83
2022-12-23T00:49:44.539Z,46.10
2022-12-23T00:52:16.883Z,43.27
2022-12-23T00:54:45.332Z,44.27
2022-12-23T00:57:13.779Z,39.00
2022-12-23T00:59:42.114Z,40.83
2022-12-23T01:02:30.922Z,41.13
2022-12-23T01:05:16.759Z,42.47
2022-12-23T01:07:45.082Z,41.83
2022-12-23T01:10:13.463Z,43.73
2022-12-23T01:12:41.726Z,39.20
2022-12-23T01:15:11.317Z,41.67
2022-12-23T01:17:41.044Z,39.33
2022-12-23T01:20:10.876Z,44.10
2022-12-23T01:22:39.235Z,42.77
2022-12-23T01:25:08.644Z,43.63
2022-12-23T01:27:37.113Z,43.77
2022-12-23T01:30:06.865Z,45.30
2022-12-23T01:32:35.242Z,43.13
2022-12-23T01:35:05.682Z,42.97
2022-12-23T01:37:33.985Z,43.80
2022-12-23T01:40:02.403Z,42.73
2022-12-23T01:42:45.031Z,41.43
2022-12-23T01:45:20.720Z,42.90
2022-12-23T01:47:56.994Z,44.40
2022-12-23T01:50:31.369Z,46.30
2022-12-23T01:53:08.110Z,45.23
2022-12-23T01:55:42.531Z,40.60
2022-12-23T01:58:14.788Z,44.20
2022-12-23T02:01:01.218Z,39.00
2022-12-23T02:03:50.849Z,42.40
2022-12-23T02:06:43.140Z,40.07
2022-12-23T02:09:19.979Z,39.77
2022-12-23T02:12:21.422Z,36.80
2022-12-23T02:15:22.622Z,42.13
2022-12-23T02:18:07.464Z,41.80
2022-12-23T02:21:07.007Z,42.77
2022-12-23T02:24:42.254Z,43.10
2022-12-23T02:27:27.822Z,38.43
2022-12-23T02:30:39.174Z,44.87
2022-12-23T02:33:39.106Z,46.67
2022-12-23T02:36:31.699Z,40.60
2022-12-23T02:39:08.299Z,42.13
2022-12-23T02:41:46.599Z,40.17
2022-12-23T02:44:28.599Z,43.03
2022-12-23T02:47:02.839Z,40.30
2022-12-23T02:49:35.555Z,40.77
2022-12-23T02:52:08.053Z,45.57
2022-12-23T02:54:43.062Z,42.43
2022-12-23T02:57:14.817Z,44.17
2022-12-23T02:59:48.570Z,44.30
2022-12-23T03:02:18.460Z,44.60
2022-12-23T03:04:47.117Z,44.37
2022-12-23T03:07:19.934Z,43.97
2022-12-23T03:09:59.764Z,42.97
2022-12-23T03:12:44.007Z,43.73
2022-12-23T03:15:26.561Z,41.50
2022-12-23T03:18:05.332Z,43.10
2022-12-23T03:20:43.875Z,40.30
2022-12-23T03:23:21.235Z,41.97
2022-12-23T03:26:00.027Z,43.80
2022-12-23T03:28:35.359Z,40.77
2022-12-23T03:31:05.468Z,40.33
2022-12-23T03:33:38.348Z,43.70
2022-12-23T03:36:14.550Z,41.87
2022-12-23T03:38:45.428Z,46.00
2022-12-23T03:41:19.433Z,40.97
2022-12-23T03:43:53.963Z,41.67
2022-12-23T03:46:35.320Z,41.30
2022-12-23T03:49:10.529Z,41.97
2022-12-23T03:51:46.010Z,44.70
2022-12-23T03:54:20.819Z,42.83
2022-12-23T03:56:56.300Z,44.67
2022-12-23T03:59:29.196Z,43.20
2022-12-23T04:02:07.923Z,40.63
2022-12-23T04:04:54.574Z,39.67
2022-12-23T04:07:27.799Z,38.70
2022-12-23T04:09:56.667Z,39.17
2022-12-23T04:12:28.505Z,37.30
2022-12-23T04:14:56.881Z,41.77
2022-12-23T04:17:25.375Z,39.47
2022-12-23T04:19:55.672Z,39.00
2022-12-23T04:22:24.211Z,38.03
2022-12-23T04:24:52.586Z,39.33
2022-12-23T04:27:20.972Z,37.07
2022-12-23T04:29:49.314Z,38.77
2022-12-23T04:32:17.662Z,37.93
2022-12-23T04:34:46.096Z,39.20
2022-12-23T04:37:15.811Z,37.70
2022-12-23T04:39:44.195Z,37.47
2022-12-23T04:42:12.538Z,37.93
2022-12-23T04:44:40.877Z,43.40
2022-12-23T04:47:09.410Z,41.30
2022-12-23T04:49:37.913Z,42.17
2022-12-23T04:52:06.541Z,41.77
2022-12-23T04:54:40.510Z,40.40
2022-12-23T04:57:12.367Z,41.47
2022-12-23T04:59:40.759Z,40.37
2022-12-23T05:02:09.733Z,41.67
2022-12-23T05:04:38.641Z,39.53
2022-12-23T05:07:07.006Z,43.07
2022-12-23T05:09:36.678Z,37.33
2022-12-23T05:12:05.432Z,39.27
2022-12-23T05:14:33.783Z,38.93
2022-12-23T05:17:07.105Z,39.50
2022-12-23T05:19:36.190Z,36.50
2022-12-23T05:22:04.527Z,37.50
2022-12-23T05:24:32.984Z,37.47
2022-12-23T05:27:02.735Z,37.33
2022-12-23T05:29:31.159Z,36.60
2022-12-23T05:31:59.555Z,38.60
2022-12-23T05:34:27.981Z,37.97
2022-12-23T05:36:56.355Z,39.57
2022-12-23T05:39:24.757Z,40.53
2022-12-23T05:41:53.067Z,37.20
2022-12-23T05:44:22.784Z,37.20
2022-12-23T05:46:51.168Z,40.20
2022-12-23T05:49:19.591Z,38.43
2022-12-23T05:51:47.898Z,36.07
2022-12-23T05:54:16.452Z,38.67
2022-12-23T05:56:44.989Z,37.30
2022-12-23T05:59:13.307Z,37.13
2022-12-23T06:01:43.107Z,38.00
2022-12-23T06:04:11.851Z,40.30
2022-12-23T06:06:40.354Z,41.57
2022-12-23T06:09:08.890Z,43.43
2022-12-23T06:11:37.160Z,39.13
2022-12-23T06:14:07.263Z,37.47
2022-12-23T06:16:35.675Z,40.73
2022-12-23T06:19:05.691Z,36.47
2022-12-23T06:21:34.445Z,38.83
2022-12-23T06:24:02.843Z,41.93
2022-12-23T06:26:31.232Z,39.10
2022-12-23T06:28:59.697Z,36.70
2022-12-23T06:31:28.097Z,40.50
2022-12-23T06:33:56.501Z,38.17
2022-12-23T06:36:26.336Z,44.27
2022-12-23T06:38:54.698Z,42.93
2022-12-23T06:41:23.009Z,46.40
2022-12-23T06:43:54.391Z,44.53
2022-12-23T06:46:23.200Z,48.67
2022-12-23T06:48:51.545Z,41.33
2022-12-23T06:51:19.987Z,41.87
2022-12-23T06:53:49.805Z,41.53
2022-12-23T06:56:18.683Z,40.07
2022-12-23T06:58:47.041Z,35.80
2022-12-23T07:01:15.427Z,32.27
2022-12-23T07:03:43.887Z,35.13
2022-12-23T07:06:12.459Z,35.50
2022-12-23T07:08:40.875Z,36.30
2022-12-23T07:11:10.633Z,34.30
2022-12-23T07:13:39.013Z,36.37
2022-12-23T07:16:10.419Z,33.93
2022-12-23T07:18:38.935Z,35.33
2022-12-23T07:21:13.995Z,36.70
2022-12-23T07:23:48.338Z,36.53
2022-12-23T07:26:18.078Z,35.63
2022-12-23T07:28:48.345Z,34.50
2022-12-23T07:31:17.053Z,33.17
2022-12-23T07:33:45.809Z,33.73
2022-12-23T07:36:14.437Z,33.17
2022-12-23T07:38:43.067Z,30.90
2022-12-23T07:41:11.390Z,30.80
2022-12-23T07:43:41.143Z,32.80
2022-12-23T07:46:10.347Z,32.20
2022-12-23T07:48:38.887Z,31.57
2022-12-23T07:51:07.421Z,32.40
2022-12-23T07:53:35.855Z,31.03
2022-12-23T07:56:04.502Z,35.17
2022-12-23T07:58:32.880Z,30.70
2022-12-23T08:01:04.756Z,29.43
2022-12-23T08:03:33.569Z,31.37
2022-12-23T08:06:03.590Z,31.03
2022-12-23T08:08:32.392Z,28.17
2022-12-23T08:11:03.043Z,29.47
2022-12-23T08:13:33.787Z,32.23
2022-12-23T08:16:05.732Z,30.63
2022-12-23T08:18:38.048Z,28.93
2022-12-23T08:21:09.108Z,28.37
2022-12-23T08:23:37.492Z,29.17
2022-12-23T08:26:09.257Z,29.10
2022-12-23T08:28:38.754Z,28.47
2022-12-23T08:31:12.181Z,28.00
2022-12-23T08:33:43.110Z,27.73
2022-12-23T08:36:20.780Z,27.90
2022-12-23T08:38:52.394Z,26.50
2022-12-23T08:41:23.762Z,27.80
2022-12-23T08:43:52.548Z,27.57
2022-12-23T08:46:22.931Z,26.73
2022-12-23T08:48:51.775Z,28.03
2022-12-23T08:51:22.480Z,28.53
2022-12-23T08:53:57.907Z,29.17
2022-12-23T08:56:32.208Z,30.53
2022-12-23T08:59:01.424Z,29.80
2022-12-23T09:01:33.999Z,29.40
2022-12-23T09:04:04.876Z,31.10
2022-12-23T09:06:37.866Z,29.80
2022-12-23T09:09:07.047Z,29.83
2022-12-23T09:11:36.041Z,28.33
2022-12-23T09:14:05.792Z,29.37
2022-12-23T09:16:35.702Z,30.60
2022-12-23T09:19:04.512Z,26.30
2022-12-23T09:21:33.054Z,28.93
2022-12-23T09:24:02.124Z,30.53
2022-12-23T09:26:32.463Z,36.30
2022-12-23T09:29:01.372Z,34.30
2022-12-23T09:31:36.195Z,39.33
2022-12-23T09:34:07.781Z,30.20
2022-12-23T09:36:36.187Z,28.23
2022-12-23T09:39:05.241Z,25.87
2022-12-23T09:41:57.124Z,25.87
2022-12-23T09:44:41.764Z,23.83
2022-12-23T09:47:15.672Z,26.57
2022-12-23T09:49:50.119Z,26.20
2022-12-23T09:52:25.116Z,28.10
2022-12-23T09:54:56.291Z,25.93
2022-12-23T09:57:32.524Z,25.23
2022-12-23T10:00:10.881Z,32.03
2022-12-23T10:02:52.599Z,22.83
2022-12-23T10:05:32.367Z,21.00
2022-12-23T10:08:08.418Z,23.17
2022-12-23T10:10:40.869Z,22.40
2022-12-23T10:13:20.444Z,22.33
2022-12-23T10:15:50.516Z,25.57
2022-12-23T10:18:29.360Z,24.10
2022-12-23T10:21:05.977Z,23.13
2022-12-23T10:23:38.862Z,20.93
2022-12-23T10:26:18.936Z,18.87
2022-12-23T10:28:47.982Z,19.10
2022-12-23T10:31:39.871Z,19.73
2022-12-23T10:34:18.480Z,20.40
2022-12-23T10:36:57.517Z,20.13
2022-12-23T10:39:34.027Z,21.37
2022-12-23T10:42:12.461Z,21.40
2022-12-23T10:45:00.172Z,20.67
2022-12-23T10:47:45.185Z,20.37
2022-12-23T10:50:46.126Z,20.03
2022-12-23T10:53:25.576Z,20.77
2022-12-23T10:55:53.924Z,21.20
2022-12-23T10:58:23.775Z,21.23
2022-12-23T11:00:57.664Z,21.73
2022-12-23T11:03:31.551Z,21.73
2022-12-23T11:06:02.595Z,22.40
2022-12-23T11:08:33.601Z,20.60
2022-12-23T11:11:02.607Z,20.60
2022-12-23T11:13:40.795Z,19.83
2022-12-23T11:16:20.613Z,18.73
2022-12-23T11:19:02.180Z,17.90
2022-12-23T11:21:34.645Z,17.60
2022-12-23T11:24:27.260Z,16.97
2022-12-23T11:27:03.373Z,18.33
2022-12-23T11:29:35.901Z,18.57
2022-12-23T11:32:17.016Z,17.83
2022-12-23T11:34:47.607Z,18.03
2022-12-23T11:37:31.509Z,18.97
2022-12-23T11:40:01.392Z,17.90
2022-12-23T11:42:31.809Z,20.03
2022-12-23T11:45:01.895Z,19.60
2022-12-23T11:47:43.218Z,20.90
2022-12-23T11:50:38.200Z,19.10
2022-12-23T11:53:15.341Z,18.13
2022-12-23T11:55:59.455Z,17.27
2022-12-23T11:58:31.347Z,15.77
2022-12-23T12:01:02.150Z,15.60
2022-12-23T12:03:35.270Z,15.80
2022-12-23T12:06:06.867Z,15.23
2022-12-23T12:08:39.078Z,15.73
2022-12-23T12:11:16.772Z,16.23
2022-12-23T12:13:49.160Z,18.30
2022-12-23T12:16:48.214Z,17.27
2022-12-23T12:19:24.873Z,17.60
2022-12-23T12:21:58.451Z,16.33
2022-12-23T12:24:33.857Z,16.20
2022-12-23T12:27:07.608Z,15.63
2022-12-23T12:29:42.951Z,16.40
2022-12-23T12:32:19.729Z,16.90
2022-12-23T12:34:54.882Z,16.53
2022-12-23T12:37:34.941Z,16.53
2022-12-23T12:40:12.747Z,16.20
2022-12-23T12:42:44.129Z,14.40
2022-12-23T12:45:19.222Z,15.00
2022-12-23T12:48:00.203Z,15.00
2022-12-23T12:50:40.877Z,14.57
2022-12-23T12:53:17.333Z,15.73
2022-12-23T12:55:52.220Z,16.10
2022-12-23T12:58:24.364Z,15.47
2022-12-23T13:01:08.421Z,15.47
2022-12-23T13:04:09.699Z,18.20
2022-12-23T13:06:45.922Z,18.23
2022-12-23T13:09:30.447Z,18.97
2022-12-23T13:12:08.089Z,16.13
2022-12-23T13:14:54.968Z,17.03
2022-12-23T13:17:28.617Z,29.63
2022-12-23T13:20:04.380Z,40.97
2022-12-23T13:22:35.190Z,77.13
2022-12-23T13:25:11.411Z,99.17
2022-12-23T13:27:47.941Z,62.07
2022-12-23T13:30:20.294Z,52.97
2022-12-23T13:33:14.338Z,78.67
2022-12-23T13:36:05.714Z,56.40
2022-12-23T13:39:02.757Z,36.63
2022-12-23T13:41:36.977Z,22.00
2022-12-23T13:44:08.669Z,19.43
2022-12-23T13:46:50.624Z,20.03
2022-12-23T13:49:32.467Z,19.80
2022-12-23T13:52:11.709Z,19.93
2022-12-23T13:54:57.065Z,20.67
2022-12-23T13:57:43.356Z,71.50
2022-12-23T14:00:30.240Z,45.10
2022-12-23T14:03:20.873Z,34.47
2022-12-23T14:05:51.063Z,21.60
2022-12-23T14:08:40.879Z,23.73
2022-12-23T14:11:17.594Z,29.40
2022-12-23T14:13:55.228Z,32.77
2022-12-23T14:16:57.199Z,23.13
2022-12-23T14:19:44.800Z,21.03
2022-12-23T14:22:49.944Z,21.20
2022-12-23T14:25:59.909Z,21.63
2022-12-23T14:28:51.185Z,21.87
2022-12-23T14:31:38.143Z,21.73
2022-12-23T14:34:26.925Z,33.03
2022-12-23T14:37:35.295Z,51.30
2022-12-23T14:40:51.019Z,81.40
2022-12-23T14:43:51.298Z,45.43
2022-12-23T14:46:57.100Z,27.43
2022-12-23T14:49:43.993Z,24.40
2022-12-23T14:53:00.320Z,25.90
2022-12-23T14:56:13.839Z,25.20
2022-12-23T14:59:09.882Z,24.73
2022-12-23T15:01:41.950Z,25.00
2022-12-23T15:04:20.053Z,26.77
2022-12-23T15:06:52.403Z,28.33
2022-12-23T15:09:27.652Z,26.80
2022-12-23T15:11:57.796Z,27.43
2022-12-23T15:14:35.403Z,26.70
2022-12-23T15:17:18.030Z,28.17
2022-12-23T15:19:48.198Z,28.53
2022-12-23T15:22:25.198Z,26.80
2022-12-23T15:24:58.159Z,26.27
2022-12-23T15:27:29.295Z,28.27
2022-12-23T15:29:59.365Z,26.73
2022-12-23T15:32:30.378Z,27.87
2022-12-23T15:35:04.373Z,27.60
2022-12-23T15:37:34.375Z,26.30
2022-12-23T15:40:12.531Z,28.07
2022-12-23T15:42:49.947Z,28.30
2022-12-23T15:45:34.873Z,26.73
2022-12-23T15:48:05.841Z,28.60
2022-12-23T15:50:41.862Z,28.03
2022-12-23T15:53:14.495Z,28.43
2022-12-23T15:55:44.784Z,30.03
2022-12-23T15:58:21.286Z,30.73
2022-12-23T16:00:55.979Z,30.37
2022-12-23T16:03:32.380Z,30.37
2022-12-23T16:06:10.620Z,29.80
2022-12-23T16:08:39.946Z,30.30
2022-12-23T16:11:16.492Z,29.93
2022-12-23T16:13:58.754Z,30.63
2022-12-23T16:16:41.854Z,30.03
2022-12-23T16:19:44.654Z,30.63
2022-12-23T16:22:25.387Z,31.73
2022-12-23T16:25:01.923Z,30.83
2022-12-23T16:27:40.619Z,30.27
2022-12-23T16:30:18.848Z,31.27
2022-12-23T16:32:52.388Z,31.40
2022-12-23T16:35:38.561Z,30.47
2022-12-23T16:38:17.813Z,32.63
2022-12-23T16:40:48.658Z,32.13
2022-12-23T16:43:20.009Z,32.70
2022-12-23T16:45:53.792Z,32.63
2022-12-23T16:48:31.044Z,32.70
2022-12-23T16:51:00.650Z,30.80
2022-12-23T16:53:29.539Z,31.17
2022-12-23T16:56:00.800Z,31.57
2022-12-23T16:58:31.254Z,33.33
2022-12-23T17:00:59.739Z,30.70
2022-12-23T17:03:28.214Z,34.73
2022-12-23T17:05:57.120Z,33.40
2022-12-23T17:08:25.690Z,30.90
2022-12-23T17:10:54.200Z,33.37
2022-12-23T17:13:22.679Z,33.73
2022-12-23T17:15:52.433Z,30.10
2022-12-23T17:18:21.348Z,58.83
2022-12-23T17:20:51.061Z,40.50
2022-12-23T17:23:29.408Z,88.97
2022-12-23T17:25:58.378Z,46.97
2022-12-23T17:28:32.294Z,36.13
2022-12-23T17:31:08.665Z,36.90
2022-12-23T17:33:41.841Z,50.30
2022-12-23T17:36:11.474Z,32.30
2022-12-23T17:38:40.400Z,39.70
2022-12-23T17:41:18.188Z,33.27
2022-12-23T17:43:46.616Z,27.47
2022-12-23T17:46:16.552Z,26.73
2022-12-23T17:48:46.952Z,24.03
2022-12-23T17:51:16.586Z,23.67
2022-12-23T17:53:45.065Z,23.50
2022-12-23T17:56:15.789Z,22.63
2022-12-23T17:58:45.761Z,22.77
2022-12-23T18:01:20.051Z,22.20
2022-12-23T18:03:48.831Z,24.40
2022-12-23T18:06:21.253Z,25.80
2022-12-23T18:08:50.480Z,24.83
2022-12-23T18:11:23.338Z,25.27
2022-12-23T18:13:54.069Z,25.87
2022-12-23T18:16:24.852Z,24.33
2022-12-23T18:18:53.302Z,23.17
2022-12-23T18:21:24.648Z,24.43
2022-12-23T18:23:54.972Z,22.30
2022-12-23T18:26:23.341Z,24.07
2022-12-23T18:28:54.107Z,24.87
2022-12-23T18:31:27.609Z,23.27
2022-12-23T18:33:56.715Z,25.47
2022-12-23T18:36:27.509Z,25.13
2022-12-23T18:38:57.381Z,25.20
2022-12-23T18:41:27.049Z,26.77
2022-12-23T18:43:56.089Z,26.77
2022-12-23T18:46:26.318Z,29.63
2022-12-23T18:48:55.028Z,31.00
2022-12-23T18:51:23.710Z,31.20
2022-12-23T18:53:52.519Z,33.00
2022-12-23T18:56:21.889Z,31.90
2022-12-23T18:58:50.952Z,30.70
2022-12-23T19:01:20.627Z,33.47
2022-12-23T19:03:50.484Z,34.07
2022-12-23T19:06:18.930Z,32.63
2022-12-23T19:08:47.372Z,32.87
2022-12-23T19:11:19.402Z,33.90
2022-12-23T19:13:48.273Z,35.63
2022-12-23T19:16:19.152Z,34.87
2022-12-23T19:18:50.685Z,31.80
2022-12-23T19:21:19.933Z,32.37
2022-12-23T19:23:48.504Z,32.43
2022-12-23T19:26:17.067Z,31.37
2022-12-23T19:28:48.259Z,31.03
2022-12-23T19:31:18.511Z,31.53
2022-12-23T19:33:49.314Z,30.37
2022-12-23T19:36:22.800Z,28.60
2022-12-23T19:38:51.632Z,28.87
2022-12-23T19:41:21.052Z,29.47
2022-12-23T19:43:49.543Z,28.80
2022-12-23T19:46:19.449Z,29.50
2022-12-23T19:48:53.516Z,29.50
2022-12-23T19:51:22.039Z,29.93
2022-12-23T19:53:53.175Z,28.40
2022-12-23T19:56:22.510Z,27.13
2022-12-23T19:58:51.685Z,28.00
2022-12-23T20:01:24.000Z,28.73
2022-12-23T20:03:56.637Z,28.60
2022-12-23T20:06:29.217Z,27.33
2022-12-23T20:09:00.942Z,29.87
2022-12-23T20:11:30.707Z,29.50
2022-12-23T20:14:00.659Z,28.63
2022-12-23T20:16:30.693Z,27.77
2022-12-23T20:19:00.554Z,26.70
2022-12-23T20:21:29.204Z,28.43
2022-12-23T20:23:58.034Z,30.23
2022-12-23T20:26:27.720Z,27.73
2022-12-23T20:28:57.300Z,27.30
2022-12-23T20:31:28.605Z,27.27
2022-12-23T20:33:59.799Z,26.80
2022-12-23T20:36:33.367Z,29.67
2022-12-23T20:39:03.600Z,27.57
2022-12-23T20:41:35.812Z,28.60
2022-12-23T20:47:01.600Z,25.03
2022-12-23T20:49:31.693Z,27.23
2022-12-23T20:52:00.134Z,27.37
2022-12-23T20:54:33.234Z,27.20
2022-12-23T20:57:03.970Z,26.10
2022-12-23T20:59:33.209Z,27.50
2022-12-23T21:02:02.900Z,28.03
2022-12-23T21:04:33.096Z,28.70
2022-12-23T21:07:01.764Z,27.37
2022-12-23T21:09:30.464Z,28.43
2022-12-23T21:11:59.415Z,27.43
2022-12-23T21:14:28.266Z,27.97
2022-12-23T21:16:56.714Z,32.97
2022-12-23T21:19:27.293Z,29.83
2022-12-23T21:21:58.159Z,33.23
2022-12-23T21:24:26.822Z,37.70
2022-12-23T21:26:57.150Z,42.43
2022-12-23T21:29:26.570Z,46.03
2022-12-23T21:31:55.521Z,41.60
2022-12-23T21:34:24.808Z,49.57
2022-12-23T21:36:53.384Z,50.07
2022-12-23T21:39:23.428Z,50.23
2022-12-23T21:41:53.835Z,40.87
2022-12-23T21:44:28.463Z,39.77
2022-12-23T21:46:58.248Z,37.40
2022-12-23T21:49:27.752Z,37.20
2022-12-23T21:51:57.760Z,48.97
2022-12-23T21:54:27.732Z,51.73
2022-12-23T21:56:56.775Z,34.57
2022-12-23T21:59:29.674Z,56.67
2022-12-23T22:02:01.655Z,48.73
2022-12-23T22:04:30.448Z,33.83
2022-12-23T22:06:59.484Z,54.97
2022-12-23T22:09:32.918Z,48.50
2022-12-23T22:12:01.734Z,37.20
2022-12-23T22:14:30.220Z,30.77
2022-12-23T22:16:59.352Z,33.43
2022-12-23T22:19:28.076Z,25.40
2022-12-23T22:21:57.080Z,25.63
2022-12-23T22:24:27.041Z,24.83
2022-12-23T22:26:57.040Z,28.07
2022-12-23T22:29:27.845Z,28.10
2022-12-23T22:31:56.782Z,28.87
2022-12-23T22:34:27.114Z,30.97
2022-12-23T22:36:55.864Z,32.63
2022-12-23T22:39:24.464Z,27.43
2022-12-23T22:41:53.730Z,23.10
2022-12-23T22:44:24.367Z,23.20
2022-12-23T22:46:53.108Z,24.37
2022-12-23T22:49:22.016Z,26.33
2022-12-23T22:51:50.509Z,31.23
2022-12-23T22:54:19.218Z,27.77
2022-12-23T22:56:50.527Z,27.93
2022-12-23T22:59:25.875Z,27.53
2022-12-23T23:01:54.906Z,27.83
2022-12-23T23:04:23.699Z,34.37
2022-12-23T23:06:52.119Z,37.93
2022-12-23T23:09:22.755Z,32.40
2022-12-23T23:11:51.751Z,30.37
2022-12-23T23:14:22.595Z,29.53
2022-12-23T23:16:51.116Z,32.73
2022-12-23T23:19:20.905Z,31.70
2022-12-23T23:21:49.889Z,30.83
2022-12-23T23:24:18.286Z,28.83
2022-12-23T23:26:46.807Z,24.77
2022-12-23T23:29:15.223Z,23.97
2022-12-23T23:31:45.308Z,27.00
2022-12-23T23:34:14.230Z,26.30
2022-12-23T23:36:42.697Z,24.47
2022-12-23T23:39:14.605Z,24.83
2022-12-23T23:41:43.413Z,36.17
2022-12-23T23:44:13.049Z,33.00
2022-12-23T23:46:41.816Z,27.73
2022-12-23T23:49:12.656Z,26.97
2022-12-23T23:51:41.654Z,25.50
2022-12-23T23:54:10.762Z,26.03
2022-12-23T23:56:39.659Z,26.13
2022-12-23T23:59:09.262Z,26.40
